sensor_id;sensor_type;location;lat;lon;timestamp;P1;durP1;ratioP1;P2;durP2;ratioP2
3036;SDS011;1528;52.550;13.408;2023-09-30T00:00:30;3.70;;;3.37;;
3036;SDS011;1528;52.550;13.408;2023-09-30T00:03:16;4.33;;;3.90;;
3036;SDS011;1528;52.550;13.408;2023-09-30T00:06:02;5.90;;;3.73;;
3036;SDS011;1528;52.550;13.408;2023-09-30T00:08:47;4.60;;;4.20;;
3036;SDS011;1528;52.550;13.408;2023-09-30T00:11:33;5.83;;;5.00;;
3036;SDS011;1528;52.550;13.408;2023-09-30T00:14:21;5.30;;;4.80;;
3036;SDS011;1528;52.550;13.408;2023-09-30T00:17:06;5.43;;;4.80;;
3036;SDS011;1528;52.550;13.408;2023-09-30T00:19:52;6.10;;;5.13;;
3036;SDS011;1528;52.550;13.408;2023-09-30T00:22:38;6.83;;;6.03;;
3036;SDS011;1528;52.550;13.408;2023-09-30T00:25:23;6.90;;;5.77;;
3036;SDS011;1528;52.550;13.408;2023-09-30T00:28:09;6.07;;;5.53;;
3036;SDS011;1528;52.550;13.408;2023-09-30T00:30:56;8.43;;;5.40;;
3036;SDS011;1528;52.550;13.408;2023-09-30T00:33:42;8.00;;;5.60;;
3036;SDS011;1528;52.550;13.408;2023-09-30T00:36:27;7.67;;;7.00;;
3036;SDS011;1528;52.550;13.408;2023-09-30T00:39:13;8.37;;;6.67;;
3036;SDS011;1528;52.550;13.408;2023-09-30T00:41:59;7.97;;;6.20;;
3036;SDS011;1528;52.550;13.408;2023-09-30T00:44:45;6.10;;;5.50;;
3036;SDS011;1528;52.550;13.408;2023-09-30T00:47:32;10.63;;;5.83;;
3036;SDS011;1528;52.550;13.408;2023-09-30T00:50:18;7.30;;;5.73;;
3036;SDS011;1528;52.550;13.408;2023-09-30T00:53:05;6.70;;;5.27;;
3036;SDS011;1528;52.550;13.408;2023-09-30T00:55:51;6.13;;;5.20;;
3036;SDS011;1528;52.550;13.408;2023-09-30T00:58:38;7.07;;;5.20;;
3036;SDS011;1528;52.550;13.408;2023-09-30T01:01:24;9.10;;;5.67;;
3036;SDS011;1528;52.550;13.408;2023-09-30T01:04:12;8.33;;;6.10;;
3036;SDS011;1528;52.550;13.408;2023-09-30T01:06:58;9.00;;;6.00;;
3036;SDS011;1528;52.550;13.408;2023-09-30T01:09:44;6.80;;;6.20;;
3036;SDS011;1528;52.550;13.408;2023-09-30T01:12:30;8.07;;;7.27;;
3036;SDS011;1528;52.550;13.408;2023-09-30T01:15:15;9.80;;;6.83;;
3036;SDS011;1528;52.550;13.408;2023-09-30T01:18:01;11.87;;;7.20;;
3036;SDS011;1528;52.550;13.408;2023-09-30T01:20:48;10.63;;;6.60;;
3036;SDS011;1528;52.550;13.408;2023-09-30T01:23:37;7.33;;;6.50;;
3036;SDS011;1528;52.550;13.408;2023-09-30T01:26:23;10.03;;;7.10;;
3036;SDS011;1528;52.550;13.408;2023-09-30T01:29:08;5.80;;;5.27;;
3036;SDS011;1528;52.550;13.408;2023-09-30T01:31:55;9.77;;;5.70;;
3036;SDS011;1528;52.550;13.408;2023-09-30T01:34:40;8.00;;;5.50;;
3036;SDS011;1528;52.550;13.408;2023-09-30T01:37:26;9.97;;;6.07;;
3036;SDS011;1528;52.550;13.408;2023-09-30T01:40:14;7.33;;;5.93;;
3036;SDS011;1528;52.550;13.408;2023-09-30T01:43:01;8.00;;;5.23;;
3036;SDS011;1528;52.550;13.408;2023-09-30T01:45:47;11.13;;;5.27;;
3036;SDS011;1528;52.550;13.408;2023-09-30T01:48:33;8.80;;;5.53;;
3036;SDS011;1528;52.550;13.408;2023-09-30T01:51:19;5.67;;;5.03;;
3036;SDS011;1528;52.550;13.408;2023-09-30T01:54:05;7.87;;;6.40;;
3036;SDS011;1528;52.550;13.408;2023-09-30T01:56:52;8.23;;;6.10;;
3036;SDS011;1528;52.550;13.408;2023-09-30T01:59:38;9.90;;;7.00;;
3036;SDS011;1528;52.550;13.408;2023-09-30T02:02:24;8.60;;;7.40;;
3036;SDS011;1528;52.550;13.408;2023-09-30T02:05:10;10.33;;;5.77;;
3036;SDS011;1528;52.550;13.408;2023-09-30T02:07:55;9.70;;;6.47;;
3036;SDS011;1528;52.550;13.408;2023-09-30T02:10:41;10.03;;;6.70;;
3036;SDS011;1528;52.550;13.408;2023-09-30T02:13:28;9.20;;;6.53;;
3036;SDS011;1528;52.550;13.408;2023-09-30T02:16:14;6.80;;;5.73;;
3036;SDS011;1528;52.550;13.408;2023-09-30T02:18:59;11.23;;;6.43;;
3036;SDS011;1528;52.550;13.408;2023-09-30T02:21:45;8.00;;;6.53;;
3036;SDS011;1528;52.550;13.408;2023-09-30T02:24:32;8.57;;;6.50;;
3036;SDS011;1528;52.550;13.408;2023-09-30T02:27:17;8.97;;;7.47;;
3036;SDS011;1528;52.550;13.408;2023-09-30T02:30:05;12.43;;;7.43;;
3036;SDS011;1528;52.550;13.408;2023-09-30T02:32:52;10.63;;;7.00;;
3036;SDS011;1528;52.550;13.408;2023-09-30T02:35:37;7.07;;;5.93;;
3036;SDS011;1528;52.550;13.408;2023-09-30T02:38:23;8.33;;;6.00;;
3036;SDS011;1528;52.550;13.408;2023-09-30T02:41:09;12.33;;;6.60;;
3036;SDS011;1528;52.550;13.408;2023-09-30T02:43:55;10.13;;;6.50;;
3036;SDS011;1528;52.550;13.408;2023-09-30T02:46:42;11.37;;;7.47;;
3036;SDS011;1528;52.550;13.408;2023-09-30T02:49:27;9.80;;;7.03;;
3036;SDS011;1528;52.550;13.408;2023-09-30T02:52:13;11.83;;;7.20;;
3036;SDS011;1528;52.550;13.408;2023-09-30T02:54:59;9.50;;;7.20;;
3036;SDS011;1528;52.550;13.408;2023-09-30T02:57:44;8.73;;;7.07;;
3036;SDS011;1528;52.550;13.408;2023-09-30T03:00:30;8.07;;;6.73;;
3036;SDS011;1528;52.550;13.408;2023-09-30T03:03:18;15.67;;;7.77;;
3036;SDS011;1528;52.550;13.408;2023-09-30T03:06:03;7.73;;;6.10;;
3036;SDS011;1528;52.550;13.408;2023-09-30T03:08:49;11.23;;;6.60;;
3036;SDS011;1528;52.550;13.408;2023-09-30T03:11:35;7.93;;;6.40;;
3036;SDS011;1528;52.550;13.408;2023-09-30T03:14:21;10.00;;;7.33;;
3036;SDS011;1528;52.550;13.408;2023-09-30T03:17:06;16.50;;;7.97;;
3036;SDS011;1528;52.550;13.408;2023-09-30T03:19:56;9.10;;;7.00;;
3036;SDS011;1528;52.550;13.408;2023-09-30T03:22:42;11.47;;;7.13;;
3036;SDS011;1528;52.550;13.408;2023-09-30T03:25:30;10.27;;;6.93;;
3036;SDS011;1528;52.550;13.408;2023-09-30T03:28:16;12.73;;;6.63;;
3036;SDS011;1528;52.550;13.408;2023-09-30T03:31:02;8.53;;;6.90;;
3036;SDS011;1528;52.550;13.408;2023-09-30T03:33:49;9.07;;;7.47;;
3036;SDS011;1528;52.550;13.408;2023-09-30T03:36:39;10.10;;;6.93;;
3036;SDS011;1528;52.550;13.408;2023-09-30T03:39:25;10.10;;;6.73;;
3036;SDS011;1528;52.550;13.408;2023-09-30T03:42:11;11.53;;;7.40;;
3036;SDS011;1528;52.550;13.408;2023-09-30T03:44:57;9.73;;;6.57;;
3036;SDS011;1528;52.550;13.408;2023-09-30T03:47:43;16.77;;;6.60;;
3036;SDS011;1528;52.550;13.408;2023-09-30T03:50:29;13.83;;;7.43;;
3036;SDS011;1528;52.550;13.408;2023-09-30T03:53:16;9.03;;;6.53;;
3036;SDS011;1528;52.550;13.408;2023-09-30T03:56:01;7.97;;;6.70;;
3036;SDS011;1528;52.550;13.408;2023-09-30T03:58:47;10.63;;;6.90;;
3036;SDS011;1528;52.550;13.408;2023-09-30T04:01:33;8.23;;;6.50;;
3036;SDS011;1528;52.550;13.408;2023-09-30T04:04:18;12.70;;;9.00;;
3036;SDS011;1528;52.550;13.408;2023-09-30T04:07:05;12.47;;;7.33;;
3036;SDS011;1528;52.550;13.408;2023-09-30T04:09:55;12.57;;;7.33;;
3036;SDS011;1528;52.550;13.408;2023-09-30T04:12:41;9.93;;;8.03;;
3036;SDS011;1528;52.550;13.408;2023-09-30T04:15:26;8.50;;;7.17;;
3036;SDS011;1528;52.550;13.408;2023-09-30T04:18:12;10.90;;;9.17;;
3036;SDS011;1528;52.550;13.408;2023-09-30T04:20:58;11.60;;;8.77;;
3036;SDS011;1528;52.550;13.408;2023-09-30T04:23:43;10.33;;;8.37;;
3036;SDS011;1528;52.550;13.408;2023-09-30T04:26:31;11.20;;;8.60;;
3036;SDS011;1528;52.550;13.408;2023-09-30T04:29:16;9.33;;;7.30;;
3036;SDS011;1528;52.550;13.408;2023-09-30T04:32:02;8.37;;;6.23;;
3036;SDS011;1528;52.550;13.408;2023-09-30T04:34:48;8.30;;;6.97;;
3036;SDS011;1528;52.550;13.408;2023-09-30T04:37:34;11.17;;;8.30;;
3036;SDS011;1528;52.550;13.408;2023-09-30T04:40:20;10.67;;;6.80;;
3036;SDS011;1528;52.550;13.408;2023-09-30T04:43:07;7.07;;;6.33;;
3036;SDS011;1528;52.550;13.408;2023-09-30T04:45:52;9.60;;;7.07;;
3036;SDS011;1528;52.550;13.408;2023-09-30T04:48:41;11.83;;;6.90;;
3036;SDS011;1528;52.550;13.408;2023-09-30T04:51:32;8.73;;;7.83;;
3036;SDS011;1528;52.550;13.408;2023-09-30T04:54:17;13.77;;;7.50;;
3036;SDS011;1528;52.550;13.408;2023-09-30T04:57:05;13.97;;;7.60;;
3036;SDS011;1528;52.550;13.408;2023-09-30T04:59:52;9.30;;;7.13;;
3036;SDS011;1528;52.550;13.408;2023-09-30T05:02:37;13.50;;;7.00;;
3036;SDS011;1528;52.550;13.408;2023-09-30T05:05:24;13.53;;;7.40;;
3036;SDS011;1528;52.550;13.408;2023-09-30T05:08:09;11.10;;;7.63;;
3036;SDS011;1528;52.550;13.408;2023-09-30T05:10:58;13.70;;;7.70;;
3036;SDS011;1528;52.550;13.408;2023-09-30T05:13:44;10.70;;;8.20;;
3036;SDS011;1528;52.550;13.408;2023-09-30T05:16:31;7.20;;;6.50;;
3036;SDS011;1528;52.550;13.408;2023-09-30T05:19:16;10.97;;;7.77;;
3036;SDS011;1528;52.550;13.408;2023-09-30T05:22:02;8.63;;;6.80;;
3036;SDS011;1528;52.550;13.408;2023-09-30T05:24:49;11.50;;;6.57;;
3036;SDS011;1528;52.550;13.408;2023-09-30T05:27:35;9.93;;;8.03;;
3036;SDS011;1528;52.550;13.408;2023-09-30T05:30:21;11.23;;;7.73;;
3036;SDS011;1528;52.550;13.408;2023-09-30T05:33:07;11.93;;;7.47;;
3036;SDS011;1528;52.550;13.408;2023-09-30T05:35:56;12.30;;;7.80;;
3036;SDS011;1528;52.550;13.408;2023-09-30T05:38:43;8.60;;;7.50;;
3036;SDS011;1528;52.550;13.408;2023-09-30T05:41:29;12.40;;;9.00;;
3036;SDS011;1528;52.550;13.408;2023-09-30T05:44:14;8.43;;;7.17;;
3036;SDS011;1528;52.550;13.408;2023-09-30T05:47:00;14.73;;;8.03;;
3036;SDS011;1528;52.550;13.408;2023-09-30T05:49:47;11.53;;;8.00;;
3036;SDS011;1528;52.550;13.408;2023-09-30T05:52:33;11.00;;;8.10;;
3036;SDS011;1528;52.550;13.408;2023-09-30T05:55:19;10.00;;;7.50;;
3036;SDS011;1528;52.550;13.408;2023-09-30T05:58:05;12.50;;;7.20;;
3036;SDS011;1528;52.550;13.408;2023-09-30T06:00:51;13.23;;;8.47;;
3036;SDS011;1528;52.550;13.408;2023-09-30T06:03:36;8.70;;;6.57;;
3036;SDS011;1528;52.550;13.408;2023-09-30T06:06:24;13.13;;;7.47;;
3036;SDS011;1528;52.550;13.408;2023-09-30T06:09:11;14.73;;;7.70;;
3036;SDS011;1528;52.550;13.408;2023-09-30T06:11:56;11.30;;;7.10;;
3036;SDS011;1528;52.550;13.408;2023-09-30T06:14:43;11.57;;;7.40;;
3036;SDS011;1528;52.550;13.408;2023-09-30T06:17:28;9.07;;;7.37;;
3036;SDS011;1528;52.550;13.408;2023-09-30T06:20:17;10.13;;;7.30;;
3036;SDS011;1528;52.550;13.408;2023-09-30T06:23:04;10.63;;;7.70;;
3036;SDS011;1528;52.550;13.408;2023-09-30T06:25:49;10.67;;;8.03;;
3036;SDS011;1528;52.550;13.408;2023-09-30T06:28:36;11.60;;;7.93;;
3036;SDS011;1528;52.550;13.408;2023-09-30T06:31:24;11.57;;;7.50;;
3036;SDS011;1528;52.550;13.408;2023-09-30T06:34:11;10.83;;;7.43;;
3036;SDS011;1528;52.550;13.408;2023-09-30T06:36:56;8.97;;;8.00;;
3036;SDS011;1528;52.550;13.408;2023-09-30T06:39:43;10.80;;;7.67;;
3036;SDS011;1528;52.550;13.408;2023-09-30T06:42:29;8.23;;;6.77;;
3036;SDS011;1528;52.550;13.408;2023-09-30T06:45:14;10.03;;;7.43;;
3036;SDS011;1528;52.550;13.408;2023-09-30T06:48:00;11.60;;;7.70;;
3036;SDS011;1528;52.550;13.408;2023-09-30T06:50:47;10.67;;;8.30;;
3036;SDS011;1528;52.550;13.408;2023-09-30T06:53:34;9.17;;;6.67;;
3036;SDS011;1528;52.550;13.408;2023-09-30T06:56:20;10.40;;;6.70;;
3036;SDS011;1528;52.550;13.408;2023-09-30T06:59:06;11.70;;;8.27;;
3036;SDS011;1528;52.550;13.408;2023-09-30T07:01:52;12.43;;;8.13;;
3036;SDS011;1528;52.550;13.408;2023-09-30T07:04:38;9.70;;;7.30;;
3036;SDS011;1528;52.550;13.408;2023-09-30T07:07:26;9.93;;;7.33;;
3036;SDS011;1528;52.550;13.408;2023-09-30T07:10:13;11.40;;;8.23;;
3036;SDS011;1528;52.550;13.408;2023-09-30T07:13:01;9.00;;;7.17;;
3036;SDS011;1528;52.550;13.408;2023-09-30T07:15:47;9.50;;;7.50;;
3036;SDS011;1528;52.550;13.408;2023-09-30T07:18:33;13.67;;;7.60;;
3036;SDS011;1528;52.550;13.408;2023-09-30T07:21:18;11.13;;;7.87;;
3036;SDS011;1528;52.550;13.408;2023-09-30T07:24:04;11.80;;;7.90;;
3036;SDS011;1528;52.550;13.408;2023-09-30T07:26:50;10.20;;;7.00;;
3036;SDS011;1528;52.550;13.408;2023-09-30T07:29:38;11.27;;;7.60;;
3036;SDS011;1528;52.550;13.408;2023-09-30T07:32:23;14.67;;;7.50;;
3036;SDS011;1528;52.550;13.408;2023-09-30T07:35:09;12.83;;;7.37;;
3036;SDS011;1528;52.550;13.408;2023-09-30T07:37:56;12.53;;;9.00;;
3036;SDS011;1528;52.550;13.408;2023-09-30T07:40:41;14.50;;;7.13;;
3036;SDS011;1528;52.550;13.408;2023-09-30T07:43:27;12.97;;;8.70;;
3036;SDS011;1528;52.550;13.408;2023-09-30T07:46:16;11.40;;;7.00;;
3036;SDS011;1528;52.550;13.408;2023-09-30T07:49:01;13.00;;;7.63;;
3036;SDS011;1528;52.550;13.408;2023-09-30T07:51:46;13.00;;;7.50;;
3036;SDS011;1528;52.550;13.408;2023-09-30T07:54:32;13.13;;;8.00;;
3036;SDS011;1528;52.550;13.408;2023-09-30T07:57:18;8.07;;;7.20;;
3036;SDS011;1528;52.550;13.408;2023-09-30T08:00:04;12.90;;;9.90;;
3036;SDS011;1528;52.550;13.408;2023-09-30T08:02:54;11.20;;;8.77;;
3036;SDS011;1528;52.550;13.408;2023-09-30T08:05:40;12.80;;;7.20;;
3036;SDS011;1528;52.550;13.408;2023-09-30T08:08:26;13.27;;;8.20;;
3036;SDS011;1528;52.550;13.408;2023-09-30T08:11:13;11.93;;;7.17;;
3036;SDS011;1528;52.550;13.408;2023-09-30T08:13:59;11.47;;;7.87;;
3036;SDS011;1528;52.550;13.408;2023-09-30T08:16:49;10.70;;;9.67;;
3036;SDS011;1528;52.550;13.408;2023-09-30T08:19:37;11.73;;;7.20;;
3036;SDS011;1528;52.550;13.408;2023-09-30T08:22:23;13.10;;;8.20;;
3036;SDS011;1528;52.550;13.408;2023-09-30T08:25:11;11.47;;;8.20;;
3036;SDS011;1528;52.550;13.408;2023-09-30T08:27:56;9.03;;;7.43;;
3036;SDS011;1528;52.550;13.408;2023-09-30T08:30:42;8.40;;;7.60;;
3036;SDS011;1528;52.550;13.408;2023-09-30T08:33:28;8.03;;;7.23;;
3036;SDS011;1528;52.550;13.408;2023-09-30T08:36:16;11.50;;;7.27;;
3036;SDS011;1528;52.550;13.408;2023-09-30T08:39:02;12.80;;;7.80;;
3036;SDS011;1528;52.550;13.408;2023-09-30T08:41:49;12.80;;;7.07;;
3036;SDS011;1528;52.550;13.408;2023-09-30T08:44:35;9.67;;;8.17;;
3036;SDS011;1528;52.550;13.408;2023-09-30T08:47:23;10.33;;;6.83;;
3036;SDS011;1528;52.550;13.408;2023-09-30T08:50:12;12.07;;;7.90;;
3036;SDS011;1528;52.550;13.408;2023-09-30T08:52:59;12.43;;;7.53;;
3036;SDS011;1528;52.550;13.408;2023-09-30T08:55:47;10.07;;;7.20;;
3036;SDS011;1528;52.550;13.408;2023-09-30T08:58:35;10.37;;;8.43;;
3036;SDS011;1528;52.550;13.408;2023-09-30T09:01:22;8.60;;;7.80;;
3036;SDS011;1528;52.550;13.408;2023-09-30T09:04:08;11.33;;;8.00;;
3036;SDS011;1528;52.550;13.408;2023-09-30T09:06:53;9.10;;;7.50;;
3036;SDS011;1528;52.550;13.408;2023-09-30T09:09:41;7.50;;;6.33;;
3036;SDS011;1528;52.550;13.408;2023-09-30T09:12:54;11.93;;;7.20;;
3036;SDS011;1528;52.550;13.408;2023-09-30T09:15:41;9.70;;;7.27;;
3036;SDS011;1528;52.550;13.408;2023-09-30T09:18:31;11.20;;;7.53;;
3036;SDS011;1528;52.550;13.408;2023-09-30T09:21:19;8.97;;;6.97;;
3036;SDS011;1528;52.550;13.408;2023-09-30T09:24:06;9.83;;;7.17;;
3036;SDS011;1528;52.550;13.408;2023-09-30T09:26:54;11.07;;;7.80;;
3036;SDS011;1528;52.550;13.408;2023-09-30T09:29:48;10.73;;;7.90;;
3036;SDS011;1528;52.550;13.408;2023-09-30T09:32:34;9.37;;;8.00;;
3036;SDS011;1528;52.550;13.408;2023-09-30T09:35:20;10.53;;;7.50;;
3036;SDS011;1528;52.550;13.408;2023-09-30T09:38:07;10.37;;;9.27;;
3036;SDS011;1528;52.550;13.408;2023-09-30T09:40:58;10.53;;;8.57;;
3036;SDS011;1528;52.550;13.408;2023-09-30T09:43:45;11.03;;;8.47;;
3036;SDS011;1528;52.550;13.408;2023-09-30T09:46:34;9.13;;;7.17;;
3036;SDS011;1528;52.550;13.408;2023-09-30T09:49:20;18.30;;;8.97;;
3036;SDS011;1528;52.550;13.408;2023-09-30T09:52:06;14.00;;;7.80;;
3036;SDS011;1528;52.550;13.408;2023-09-30T09:54:52;9.60;;;6.83;;
3036;SDS011;1528;52.550;13.408;2023-09-30T09:57:39;10.00;;;6.80;;
3036;SDS011;1528;52.550;13.408;2023-09-30T10:00:26;11.53;;;7.03;;
3036;SDS011;1528;52.550;13.408;2023-09-30T10:03:13;9.33;;;7.00;;
3036;SDS011;1528;52.550;13.408;2023-09-30T10:05:59;7.67;;;6.93;;
3036;SDS011;1528;52.550;13.408;2023-09-30T10:08:45;11.50;;;7.30;;
3036;SDS011;1528;52.550;13.408;2023-09-30T10:11:35;8.67;;;7.53;;
3036;SDS011;1528;52.550;13.408;2023-09-30T10:14:29;8.43;;;6.90;;
3036;SDS011;1528;52.550;13.408;2023-09-30T10:17:17;11.80;;;7.77;;
3036;SDS011;1528;52.550;13.408;2023-09-30T10:20:04;10.07;;;6.40;;
3036;SDS011;1528;52.550;13.408;2023-09-30T10:23:01;11.83;;;6.50;;
3036;SDS011;1528;52.550;13.408;2023-09-30T10:26:15;9.37;;;7.43;;
3036;SDS011;1528;52.550;13.408;2023-09-30T10:29:05;9.43;;;7.17;;
3036;SDS011;1528;52.550;13.408;2023-09-30T10:31:54;8.90;;;6.80;;
3036;SDS011;1528;52.550;13.408;2023-09-30T10:34:41;8.80;;;6.37;;
3036;SDS011;1528;52.550;13.408;2023-09-30T10:37:32;7.60;;;6.57;;
3036;SDS011;1528;52.550;13.408;2023-09-30T10:40:25;11.53;;;6.37;;
3036;SDS011;1528;52.550;13.408;2023-09-30T10:43:20;12.80;;;6.37;;
3036;SDS011;1528;52.550;13.408;2023-09-30T10:46:29;7.40;;;6.70;;
3036;SDS011;1528;52.550;13.408;2023-09-30T10:52:22;10.17;;;8.13;;
3036;SDS011;1528;52.550;13.408;2023-09-30T10:55:08;7.43;;;6.07;;
3036;SDS011;1528;52.550;13.408;2023-09-30T10:57:55;9.80;;;8.33;;
3036;SDS011;1528;52.550;13.408;2023-09-30T11:00:51;7.93;;;7.13;;
3036;SDS011;1528;52.550;13.408;2023-09-30T11:03:37;6.90;;;6.13;;
3036;SDS011;1528;52.550;13.408;2023-09-30T11:06:22;6.70;;;6.07;;
3036;SDS011;1528;52.550;13.408;2023-09-30T11:09:09;7.60;;;5.67;;
3036;SDS011;1528;52.550;13.408;2023-09-30T11:12:00;6.63;;;5.97;;
3036;SDS011;1528;52.550;13.408;2023-09-30T11:14:46;8.23;;;7.63;;
3036;SDS011;1528;52.550;13.408;2023-09-30T11:17:31;7.10;;;6.40;;
3036;SDS011;1528;52.550;13.408;2023-09-30T11:20:17;10.47;;;7.50;;
3036;SDS011;1528;52.550;13.408;2023-09-30T11:23:03;9.50;;;6.43;;
3036;SDS011;1528;52.550;13.408;2023-09-30T11:25:50;10.23;;;6.70;;
3036;SDS011;1528;52.550;13.408;2023-09-30T11:28:36;8.57;;;6.80;;
3036;SDS011;1528;52.550;13.408;2023-09-30T11:31:23;7.00;;;6.40;;
3036;SDS011;1528;52.550;13.408;2023-09-30T11:34:08;9.03;;;8.13;;
3036;SDS011;1528;52.550;13.408;2023-09-30T11:36:55;8.30;;;7.07;;
3036;SDS011;1528;52.550;13.408;2023-09-30T11:39:41;7.73;;;7.03;;
3036;SDS011;1528;52.550;13.408;2023-09-30T11:42:28;7.60;;;6.37;;
3036;SDS011;1528;52.550;13.408;2023-09-30T11:45:20;7.07;;;6.37;;
3036;SDS011;1528;52.550;13.408;2023-09-30T11:48:15;7.03;;;6.00;;
3036;SDS011;1528;52.550;13.408;2023-09-30T11:51:03;7.17;;;6.40;;
3036;SDS011;1528;52.550;13.408;2023-09-30T11:53:49;9.83;;;7.20;;
3036;SDS011;1528;52.550;13.408;2023-09-30T11:56:37;10.97;;;6.80;;
3036;SDS011;1528;52.550;13.408;2023-09-30T11:59:24;7.40;;;6.00;;
3036;SDS011;1528;52.550;13.408;2023-09-30T12:02:10;7.40;;;6.70;;
3036;SDS011;1528;52.550;13.408;2023-09-30T12:04:56;8.23;;;7.43;;
3036;SDS011;1528;52.550;13.408;2023-09-30T12:07:42;7.30;;;6.50;;
3036;SDS011;1528;52.550;13.408;2023-09-30T12:10:28;8.07;;;5.97;;
3036;SDS011;1528;52.550;13.408;2023-09-30T12:13:14;7.40;;;6.70;;
3036;SDS011;1528;52.550;13.408;2023-09-30T12:16:02;8.17;;;6.17;;
3036;SDS011;1528;52.550;13.408;2023-09-30T12:18:48;8.57;;;6.53;;
3036;SDS011;1528;52.550;13.408;2023-09-30T12:21:34;7.10;;;6.40;;
3036;SDS011;1528;52.550;13.408;2023-09-30T12:24:20;8.23;;;6.20;;
3036;SDS011;1528;52.550;13.408;2023-09-30T12:27:07;7.77;;;5.90;;
3036;SDS011;1528;52.550;13.408;2023-09-30T12:29:53;11.97;;;6.50;;
3036;SDS011;1528;52.550;13.408;2023-09-30T12:32:41;8.20;;;7.13;;
3036;SDS011;1528;52.550;13.408;2023-09-30T12:35:28;7.90;;;7.10;;
3036;SDS011;1528;52.550;13.408;2023-09-30T12:38:15;8.50;;;7.80;;
3036;SDS011;1528;52.550;13.408;2023-09-30T12:41:01;9.87;;;9.03;;
3036;SDS011;1528;52.550;13.408;2023-09-30T12:43:48;9.10;;;7.67;;
3036;SDS011;1528;52.550;13.408;2023-09-30T12:46:35;8.13;;;7.43;;
3036;SDS011;1528;52.550;13.408;2023-09-30T12:49:24;8.90;;;8.10;;
3036;SDS011;1528;52.550;13.408;2023-09-30T12:52:09;7.87;;;7.10;;
3036;SDS011;1528;52.550;13.408;2023-09-30T12:54:55;8.97;;;6.30;;
3036;SDS011;1528;52.550;13.408;2023-09-30T12:57:40;9.60;;;6.17;;
3036;SDS011;1528;52.550;13.408;2023-09-30T13:00:26;8.70;;;5.67;;
3036;SDS011;1528;52.550;13.408;2023-09-30T13:03:14;6.57;;;5.97;;
3036;SDS011;1528;52.550;13.408;2023-09-30T13:06:01;7.73;;;5.87;;
3036;SDS011;1528;52.550;13.408;2023-09-30T13:08:47;8.90;;;5.80;;
3036;SDS011;1528;52.550;13.408;2023-09-30T13:11:33;8.07;;;6.13;;
3036;SDS011;1528;52.550;13.408;2023-09-30T13:14:18;7.23;;;5.70;;
3036;SDS011;1528;52.550;13.408;2023-09-30T13:17:04;9.00;;;5.47;;
3036;SDS011;1528;52.550;13.408;2023-09-30T13:19:50;6.70;;;5.20;;
3036;SDS011;1528;52.550;13.408;2023-09-30T13:22:37;9.90;;;5.60;;
3036;SDS011;1528;52.550;13.408;2023-09-30T13:25:23;5.77;;;5.20;;
3036;SDS011;1528;52.550;13.408;2023-09-30T13:28:10;8.13;;;5.00;;
3036;SDS011;1528;52.550;13.408;2023-09-30T13:30:56;7.00;;;6.17;;
3036;SDS011;1528;52.550;13.408;2023-09-30T13:33:42;7.73;;;7.03;;
3036;SDS011;1528;52.550;13.408;2023-09-30T13:36:28;6.43;;;5.83;;
3036;SDS011;1528;52.550;13.408;2023-09-30T13:39:15;6.53;;;5.23;;
3036;SDS011;1528;52.550;13.408;2023-09-30T13:42:01;5.43;;;5.03;;
3036;SDS011;1528;52.550;13.408;2023-09-30T13:44:46;8.73;;;5.17;;
3036;SDS011;1528;52.550;13.408;2023-09-30T13:47:33;6.13;;;5.50;;
3036;SDS011;1528;52.550;13.408;2023-09-30T13:50:19;5.70;;;5.10;;
3036;SDS011;1528;52.550;13.408;2023-09-30T13:53:05;8.37;;;5.30;;
3036;SDS011;1528;52.550;13.408;2023-09-30T13:55:52;8.60;;;5.90;;
3036;SDS011;1528;52.550;13.408;2023-09-30T13:58:38;6.73;;;4.70;;
3036;SDS011;1528;52.550;13.408;2023-09-30T14:01:23;6.70;;;6.20;;
3036;SDS011;1528;52.550;13.408;2023-09-30T14:04:09;6.60;;;5.90;;
3036;SDS011;1528;52.550;13.408;2023-09-30T14:06:54;6.70;;;5.13;;
3036;SDS011;1528;52.550;13.408;2023-09-30T14:09:40;6.40;;;5.00;;
3036;SDS011;1528;52.550;13.408;2023-09-30T14:12:27;9.33;;;6.63;;
3036;SDS011;1528;52.550;13.408;2023-09-30T14:15:13;7.23;;;5.87;;
3036;SDS011;1528;52.550;13.408;2023-09-30T14:17:59;7.17;;;6.50;;
3036;SDS011;1528;52.550;13.408;2023-09-30T14:20:46;6.73;;;6.23;;
3036;SDS011;1528;52.550;13.408;2023-09-30T14:23:31;7.10;;;6.40;;
3036;SDS011;1528;52.550;13.408;2023-09-30T14:26:17;6.43;;;5.93;;
3036;SDS011;1528;52.550;13.408;2023-09-30T14:29:04;6.20;;;5.70;;
3036;SDS011;1528;52.550;13.408;2023-09-30T14:31:50;5.80;;;5.37;;
3036;SDS011;1528;52.550;13.408;2023-09-30T14:34:36;7.30;;;6.67;;
3036;SDS011;1528;52.550;13.408;2023-09-30T14:37:21;7.07;;;6.43;;
3036;SDS011;1528;52.550;13.408;2023-09-30T14:40:07;7.63;;;6.67;;
3036;SDS011;1528;52.550;13.408;2023-09-30T14:42:54;6.70;;;6.10;;
3036;SDS011;1528;52.550;13.408;2023-09-30T14:45:42;7.40;;;6.70;;
3036;SDS011;1528;52.550;13.408;2023-09-30T14:48:28;6.60;;;5.47;;
3036;SDS011;1528;52.550;13.408;2023-09-30T14:51:13;7.43;;;5.23;;
3036;SDS011;1528;52.550;13.408;2023-09-30T14:53:59;5.33;;;4.83;;
3036;SDS011;1528;52.550;13.408;2023-09-30T14:56:44;9.60;;;6.37;;
3036;SDS011;1528;52.550;13.408;2023-09-30T14:59:32;5.00;;;3.90;;
3036;SDS011;1528;52.550;13.408;2023-09-30T15:02:19;5.73;;;5.10;;
3036;SDS011;1528;52.550;13.408;2023-09-30T15:05:06;5.07;;;4.57;;
3036;SDS011;1528;52.550;13.408;2023-09-30T15:07:52;5.30;;;4.80;;
3036;SDS011;1528;52.550;13.408;2023-09-30T15:10:38;5.63;;;4.97;;
3036;SDS011;1528;52.550;13.408;2023-09-30T15:13:24;5.00;;;4.50;;
3036;SDS011;1528;52.550;13.408;2023-09-30T15:16:16;5.30;;;4.57;;
3036;SDS011;1528;52.550;13.408;2023-09-30T15:19:04;6.33;;;4.90;;
3036;SDS011;1528;52.550;13.408;2023-09-30T15:21:50;4.97;;;4.57;;
3036;SDS011;1528;52.550;13.408;2023-09-30T15:24:36;5.73;;;4.73;;
3036;SDS011;1528;52.550;13.408;2023-09-30T15:27:22;6.47;;;5.87;;
3036;SDS011;1528;52.550;13.408;2023-09-30T15:30:08;10.43;;;7.27;;
3036;SDS011;1528;52.550;13.408;2023-09-30T15:32:55;7.50;;;5.37;;
3036;SDS011;1528;52.550;13.408;2023-09-30T15:35:42;8.53;;;5.57;;
3036;SDS011;1528;52.550;13.408;2023-09-30T15:38:28;9.43;;;5.00;;
3036;SDS011;1528;52.550;13.408;2023-09-30T15:41:14;8.43;;;5.43;;
3036;SDS011;1528;52.550;13.408;2023-09-30T15:44:00;6.40;;;5.53;;
3036;SDS011;1528;52.550;13.408;2023-09-30T15:46:45;6.40;;;5.50;;
3036;SDS011;1528;52.550;13.408;2023-09-30T15:49:31;6.90;;;5.73;;
3036;SDS011;1528;52.550;13.408;2023-09-30T15:52:18;6.03;;;5.20;;
3036;SDS011;1528;52.550;13.408;2023-09-30T15:55:05;6.57;;;4.73;;
3036;SDS011;1528;52.550;13.408;2023-09-30T15:57:51;6.23;;;5.70;;
3036;SDS011;1528;52.550;13.408;2023-09-30T16:00:37;7.23;;;5.93;;
3036;SDS011;1528;52.550;13.408;2023-09-30T16:03:23;6.90;;;5.10;;
3036;SDS011;1528;52.550;13.408;2023-09-30T16:06:08;14.13;;;5.50;;
3036;SDS011;1528;52.550;13.408;2023-09-30T16:08:55;6.00;;;5.30;;
3036;SDS011;1528;52.550;13.408;2023-09-30T16:11:41;7.77;;;5.33;;
3036;SDS011;1528;52.550;13.408;2023-09-30T16:14:27;9.27;;;8.27;;
3036;SDS011;1528;52.550;13.408;2023-09-30T16:17:13;8.80;;;7.37;;
3036;SDS011;1528;52.550;13.408;2023-09-30T16:19:58;6.13;;;4.93;;
3036;SDS011;1528;52.550;13.408;2023-09-30T16:22:44;6.23;;;5.60;;
3036;SDS011;1528;52.550;13.408;2023-09-30T16:25:31;7.13;;;6.43;;
3036;SDS011;1528;52.550;13.408;2023-09-30T16:28:17;6.10;;;5.50;;
3036;SDS011;1528;52.550;13.408;2023-09-30T16:31:02;6.90;;;5.60;;
3036;SDS011;1528;52.550;13.408;2023-09-30T16:33:48;7.03;;;6.37;;
3036;SDS011;1528;52.550;13.408;2023-09-30T16:36:34;8.97;;;6.03;;
3036;SDS011;1528;52.550;13.408;2023-09-30T16:39:20;7.40;;;5.73;;
3036;SDS011;1528;52.550;13.408;2023-09-30T16:42:07;6.07;;;5.57;;
3036;SDS011;1528;52.550;13.408;2023-09-30T16:44:53;8.33;;;7.17;;
3036;SDS011;1528;52.550;13.408;2023-09-30T16:47:39;11.10;;;6.77;;
3036;SDS011;1528;52.550;13.408;2023-09-30T16:50:24;9.27;;;6.70;;
3036;SDS011;1528;52.550;13.408;2023-09-30T16:53:10;8.00;;;6.43;;
3036;SDS011;1528;52.550;13.408;2023-09-30T16:55:56;7.13;;;6.20;;